createdAt,value
2016-04-04T00:01:20.362Z,7
2016-04-04T00:04:21.948Z,7
2016-04-04T00:07:31.159Z,7
2016-04-04T00:10:41.089Z,7
2016-04-04T00:13:53.741Z,7
2016-04-04T00:17:12.108Z,7
2016-04-04T00:20:19.757Z,7
2016-04-04T00:23:21.374Z,7
2016-04-04T00:26:33.882Z,7
2016-04-04T00:29:41.499Z,7
2016-04-04T00:32:53.807Z,7
2016-04-04T00:36:12.440Z,7
2016-04-04T00:39:20.246Z,7
2016-04-04T00:42:21.972Z,7
2016-04-04T00:45:34.528Z,7
2016-04-04T00:48:47.410Z,7
2016-04-04T00:51:59.983Z,7
2016-04-04T00:55:18.882Z,7
2016-04-04T00:58:20.921Z,7
2016-04-04T01:01:31.726Z,7
2016-04-04T01:04:42.407Z,7
2016-04-04T01:07:51.696Z,7
2016-04-04T01:11:01.676Z,7
2016-04-04T01:14:17.433Z,7
2016-04-04T01:17:19.347Z,7
2016-04-04T01:20:32.089Z,7
2016-04-04T01:23:46.567Z,7
2016-04-04T01:26:57.028Z,7
2016-04-04T01:30:13.945Z,7
2016-04-04T01:33:15.844Z,7
2016-04-04T01:36:25.805Z,7
2016-04-04T01:39:35.110Z,7
2016-04-04T01:42:48.134Z,7
2016-04-04T01:46:00.628Z,7
2016-04-04T01:49:19.417Z,7
2016-04-04T01:52:21.410Z,7
2016-04-04T01:55:31.012Z,7
2016-04-04T01:58:41.785Z,7
2016-04-04T02:01:51.283Z,7
2016-04-04T02:05:03.747Z,7
2016-04-04T02:08:16.208Z,7
2016-04-04T02:11:26.326Z,7
2016-04-04T02:14:35.678Z,7
2016-04-04T02:17:48.733Z,7
2016-04-04T02:21:01.541Z,7
2016-04-04T02:24:20.205Z,7
2016-04-04T02:27:22.088Z,7
2016-04-04T02:30:34.877Z,7
2016-04-04T02:33:47.057Z,7
2016-04-04T02:36:56.596Z,7
2016-04-04T02:40:13.342Z,7
2016-04-04T02:43:21.225Z,7
2016-04-04T02:46:23.092Z,7
2016-04-04T02:49:35.819Z,7
2016-04-04T02:52:48.436Z,7
2016-04-04T02:55:59.335Z,7
2016-04-04T02:59:18.096Z,7
2016-04-04T03:02:19.807Z,7
2016-04-04T03:05:32.424Z,7
2016-04-04T03:08:39.160Z,7
2016-04-04T03:11:48.168Z,7
2016-04-04T03:15:00.316Z,7
2016-04-04T03:18:19.249Z,7
2016-04-04T03:21:20.976Z,7
2016-04-04T03:24:32.984Z,7
2016-04-04T03:27:45.039Z,7
2016-04-04T03:30:55.797Z,7
2016-04-04T03:34:05.120Z,7
2016-04-04T03:37:17.660Z,7
2016-04-04T03:40:29.902Z,7
2016-04-04T03:43:39.848Z,7
2016-04-04T03:46:52.653Z,7
2016-04-04T03:50:04.068Z,7
2016-04-04T03:53:16.593Z,7
2016-04-04T03:56:27.773Z,7
2016-04-04T03:59:40.469Z,1
2016-04-04T04:02:53.102Z,2
2016-04-04T04:06:11.942Z,3
2016-04-04T04:09:19.825Z,5
2016-04-04T04:12:21.630Z,8
2016-04-04T04:15:34.278Z,12
2016-04-04T04:18:44.333Z,21
2016-04-04T04:21:56.373Z,34
2016-04-04T04:25:14.977Z,52
2016-04-04T04:28:16.689Z,77
2016-04-04T04:31:28.509Z,97
2016-04-04T04:34:41.314Z,107
2016-04-04T04:37:52.009Z,133
2016-04-04T04:41:02.909Z,162
2016-04-04T04:44:20.325Z,194
2016-04-04T04:47:22.052Z,236
2016-04-04T04:50:33.154Z,301
2016-04-04T04:53:45.677Z,397
2016-04-04T04:56:55.701Z,480
2016-04-04T05:00:14.462Z,575
2016-04-04T05:03:16.283Z,681
2016-04-04T05:06:28.962Z,800
2016-04-04T05:09:40.033Z,923
2016-04-04T05:12:50.089Z,1072
2016-04-04T05:16:02.909Z,1224
2016-04-04T05:19:19.498Z,1319
2016-04-04T05:22:21.427Z,1414
2016-04-04T05:25:33.904Z,1520
2016-04-04T05:28:45.193Z,1568
2016-04-04T05:31:54.874Z,1617
2016-04-04T05:35:13.790Z,1751
2016-04-04T05:38:21.674Z,1820
2016-04-04T05:41:23.447Z,1859
2016-04-04T05:44:34.158Z,1957
2016-04-04T05:47:46.948Z,2073
2016-04-04T05:50:57.081Z,2280
2016-04-04T05:54:15.889Z,2614
2016-04-04T05:57:17.788Z,2859
2016-04-04T06:00:27.154Z,2752
2016-04-04T06:03:39.912Z,2676
2016-04-04T06:06:52.874Z,2760
2016-04-04T06:10:02.413Z,3044
2016-04-04T06:13:20.658Z,3683
2016-04-04T06:16:22.681Z,3908
2016-04-04T06:19:32.581Z,4133
2016-04-04T06:22:45.339Z,4714
2016-04-04T06:25:57.112Z,5074
2016-04-04T06:29:15.217Z,5571
2016-04-04T06:32:17.318Z,5691
2016-04-04T06:35:30.076Z,5640
2016-04-04T06:38:40.148Z,5631
2016-04-04T06:41:49.953Z,5455
2016-04-04T06:44:59.320Z,5183
2016-04-04T06:48:18.315Z,5119
2016-04-04T06:51:20.369Z,4918
2016-04-04T06:54:29.488Z,4747
2016-04-04T06:57:42.042Z,4615
2016-04-04T07:00:52.665Z,4488
2016-04-04T07:04:03.907Z,4602
2016-04-04T07:07:19.996Z,4609
2016-04-04T07:10:21.816Z,5150
2016-04-04T07:13:34.652Z,5852
2016-04-04T07:16:47.660Z,6493
2016-04-04T07:19:58.684Z,6961
2016-04-04T07:23:17.617Z,7140
2016-04-04T07:26:19.813Z,7717
2016-04-04T07:29:32.164Z,8682
2016-04-04T07:32:43.126Z,8721
2016-04-04T07:35:55.898Z,10309
2016-04-04T07:39:15.113Z,11650
2016-04-04T07:42:17.433Z,10892
2016-04-04T07:45:31.004Z,11424
2016-04-04T07:48:41.872Z,11489
2016-04-04T07:51:53.333Z,12759
2016-04-04T07:55:12.827Z,13813
2016-04-04T07:58:21.586Z,11657
2016-04-04T08:01:24.109Z,9081
2016-04-04T08:04:34.087Z,7540
2016-04-04T08:07:46.938Z,6758
2016-04-04T08:10:57.775Z,6590
2016-04-04T08:14:13.378Z,7071
2016-04-04T08:17:21.481Z,8050
2016-04-04T08:20:23.677Z,9483
2016-04-04T08:23:36.763Z,10808
2016-04-04T08:26:47.849Z,12434
2016-04-04T08:29:59.248Z,13171
2016-04-04T08:33:17.373Z,14603
2016-04-04T08:36:19.940Z,13614
2016-04-04T08:39:33.223Z,13106
2016-04-04T08:42:46.406Z,7002
2016-04-04T08:45:56.550Z,6632
2016-04-04T08:49:16.211Z,1551
2016-04-04T08:52:19.311Z,557
2016-04-04T08:55:32.849Z,515
2016-04-04T08:58:47.106Z,1981
2016-04-04T09:01:57.927Z,3390
2016-04-04T09:05:17.422Z,3077
2016-04-04T09:08:20.430Z,9687
2016-04-04T09:11:31.798Z,7184
2016-04-04T09:14:45.493Z,384
2016-04-04T09:17:59.954Z,384
2016-04-04T09:21:20.340Z,384
2016-04-04T09:24:25.239Z,530
2016-04-04T09:27:38.934Z,2063
2016-04-04T09:30:51.255Z,4191
2016-04-04T09:34:05.685Z,11086
2016-04-04T09:37:17.415Z,13378
2016-04-04T09:40:30.782Z,11166
2016-04-04T09:43:41.696Z,9584
2016-04-04T09:46:53.907Z,8934
2016-04-04T09:50:13.715Z,8681
2016-04-04T09:53:22.738Z,8519
2016-04-04T09:56:25.481Z,8287
2016-04-04T09:59:34.724Z,8797
2016-04-04T10:02:45.967Z,8931
2016-04-04T10:05:58.349Z,9210
2016-04-04T10:09:17.282Z,9729
2016-04-04T10:12:19.310Z,10108
2016-04-04T10:15:34.021Z,10191
2016-04-04T10:18:47.498Z,9817
2016-04-04T10:22:01.350Z,9508
2016-04-04T10:25:18.783Z,9404
2016-04-04T10:28:22.994Z,9590
2016-04-04T10:31:37.861Z,9657
2016-04-04T10:34:50.761Z,9372
2016-04-04T10:38:05.565Z,9308
2016-04-04T10:41:20.216Z,9362
2016-04-04T10:44:33.053Z,9311
2016-04-04T10:47:47.873Z,9321
2016-04-04T10:51:02.678Z,9134
2016-04-04T10:54:20.267Z,9316
2016-04-04T10:57:24.556Z,10090
2016-04-04T11:00:39.533Z,10534
2016-04-04T11:03:54.588Z,10486
2016-04-04T11:07:14.081Z,10427
2016-04-04T11:10:18.195Z,10289
2016-04-04T11:13:32.984Z,10129
2016-04-04T11:16:47.758Z,9895
2016-04-04T11:20:01.531Z,9763
2016-04-04T11:23:22.511Z,9576
2016-04-04T11:26:26.566Z,9383
2016-04-04T11:29:39.418Z,9243
2016-04-04T11:32:54.176Z,9237
2016-04-04T11:36:15.027Z,9373
2016-04-04T11:39:19.168Z,9850
2016-04-04T11:42:30.942Z,9775
2016-04-04T11:45:42.762Z,8874
2016-04-04T11:48:57.661Z,8451
2016-04-04T11:52:17.406Z,8772
2016-04-04T11:55:21.477Z,8806
2016-04-04T11:58:35.985Z,8475
2016-04-04T12:01:50.977Z,8664
2016-04-04T12:05:05.610Z,8493
2016-04-04T12:08:23.089Z,8524
2016-04-04T12:11:27.270Z,8040
2016-04-04T12:14:42.028Z,7432
2016-04-04T12:17:54.458Z,7324
2016-04-04T12:21:15.201Z,7586
2016-04-04T12:24:19.461Z,7659
2016-04-04T12:27:32.032Z,7513
2016-04-04T12:30:45.555Z,7413
2016-04-04T12:33:58.423Z,7326
2016-04-04T12:37:20.074Z,7201
2016-04-04T12:40:23.348Z,6878
2016-04-04T12:43:38.137Z,6721
2016-04-04T12:46:52.786Z,6179
2016-04-04T12:50:07.684Z,5357
2016-04-04T12:53:22.601Z,4847
2016-04-04T12:56:34.999Z,5222
2016-04-04T12:59:48.305Z,5790
2016-04-04T13:03:01.641Z,6181
2016-04-04T13:06:20.512Z,5857
2016-04-04T13:09:25.504Z,5724
2016-04-04T13:12:37.325Z,5898
2016-04-04T13:15:51.208Z,6102
2016-04-04T13:19:04.403Z,6180
2016-04-04T13:22:19.054Z,6199
2016-04-04T13:25:33.875Z,6398
2016-04-04T13:28:48.430Z,6472
2016-04-04T13:32:03.126Z,6569
2016-04-04T13:35:23.918Z,6713
2016-04-04T13:38:28.004Z,6709
2016-04-04T13:41:41.167Z,6597
2016-04-04T13:44:55.286Z,6409
2016-04-04T13:48:14.590Z,6271
2016-04-04T13:51:18.508Z,6171
2016-04-04T13:54:30.984Z,6175
2016-04-04T13:57:45.617Z,5946
2016-04-04T14:00:58.235Z,5662
2016-04-04T14:04:18.371Z,5539
2016-04-04T14:07:22.269Z,5586
2016-04-04T14:10:36.512Z,5714
2016-04-04T14:13:50.442Z,5699
2016-04-04T14:17:03.997Z,5443
2016-04-04T14:20:21.961Z,5156
2016-04-04T14:23:25.484Z,5229
2016-04-04T14:26:39.820Z,5183
2016-04-04T14:29:54.032Z,5071
2016-04-04T14:33:08.118Z,5321
2016-04-04T14:36:18.379Z,5288
2016-04-04T14:39:32.246Z,5128
2016-04-04T14:42:44.879Z,5090
2016-04-04T14:45:59.512Z,4918
2016-04-04T14:49:17.336Z,4572
2016-04-04T14:52:21.187Z,4330
2016-04-04T14:55:35.258Z,4178
2016-04-04T14:58:44.610Z,3925
2016-04-04T15:01:56.289Z,3753
2016-04-04T15:05:16.941Z,3688
2016-04-04T15:08:20.980Z,3618
2016-04-04T15:11:32.551Z,3531
2016-04-04T15:14:47.293Z,3551
2016-04-04T15:18:00.832Z,3711
2016-04-04T15:21:20.749Z,3921
2016-04-04T15:24:23.695Z,4079
2016-04-04T15:27:38.281Z,3993
2016-04-04T15:30:51.727Z,3713
2016-04-04T15:34:06.422Z,3336
2016-04-04T15:37:21.090Z,2863
2016-04-04T15:40:35.504Z,2479
2016-04-04T15:43:48.496Z,2441
2016-04-04T15:47:01.176Z,2368
2016-04-04T15:50:21.765Z,2283
2016-04-04T15:53:25.570Z,2263
2016-04-04T15:56:38.483Z,2263
2016-04-04T15:59:52.992Z,2312
2016-04-04T16:03:04.407Z,2362
2016-04-04T16:06:22.932Z,2402
2016-04-04T16:09:26.618Z,2447
2016-04-04T16:12:38.595Z,2515
2016-04-04T16:15:50.150Z,2457
2016-04-04T16:19:04.564Z,2195
2016-04-04T16:22:21.512Z,1757
2016-04-04T16:25:24.911Z,1562
2016-04-04T16:28:38.091Z,1451
2016-04-04T16:31:50.193Z,1360
2016-04-04T16:35:03.466Z,1289
2016-04-04T16:38:21.305Z,1220
2016-04-04T16:41:24.329Z,1164
2016-04-04T16:44:37.556Z,1100
2016-04-04T16:47:49.626Z,1038
2016-04-04T16:51:02.009Z,1009
2016-04-04T16:54:22.645Z,949
2016-04-04T16:57:26.122Z,862
2016-04-04T17:00:37.285Z,788
2016-04-04T17:03:48.466Z,723
2016-04-04T17:07:01.380Z,632
2016-04-04T17:10:21.219Z,551
2016-04-04T17:13:24.774Z,492
2016-04-04T17:16:36.896Z,447
2016-04-04T17:19:51.341Z,395
2016-04-04T17:23:05.833Z,349
2016-04-04T17:26:24.001Z,306
2016-04-04T17:29:27.837Z,261
2016-04-04T17:32:42.251Z,212
2016-04-04T17:35:56.853Z,169
2016-04-04T17:39:17.456Z,129
2016-04-04T17:42:21.299Z,95
2016-04-04T17:45:33.286Z,71
2016-04-04T17:48:47.649Z,52
2016-04-04T17:52:00.431Z,35
2016-04-04T17:55:21.013Z,24
2016-04-04T17:58:24.691Z,16
2016-04-04T18:01:39.245Z,10
2016-04-04T18:04:53.096Z,6
2016-04-04T18:08:07.603Z,4
2016-04-04T18:11:19.894Z,2
2016-04-04T18:14:34.280Z,1
2016-04-04T18:17:48.505Z,1
2016-04-04T18:21:00.248Z,1
2016-04-04T18:24:20.040Z,1
2016-04-04T18:27:24.395Z,1
2016-04-04T18:30:36.496Z,1
2016-04-04T18:33:50.801Z,1
2016-04-04T18:37:03.559Z,1
2016-04-04T18:40:22.367Z,1
2016-04-04T18:43:25.969Z,1
2016-04-04T18:46:37.024Z,1
2016-04-04T18:49:49.766Z,1
2016-04-04T18:53:02.071Z,1
2016-04-04T18:56:18.674Z,1
2016-04-04T18:59:22.026Z,3
2016-04-04T19:02:36.129Z,3
2016-04-04T19:05:48.372Z,3
2016-04-04T19:09:01.286Z,3
2016-04-04T19:12:20.326Z,3
2016-04-04T19:15:23.818Z,3
2016-04-04T19:18:38.079Z,3
2016-04-04T19:21:51.713Z,3
2016-04-04T19:25:05.846Z,3
2016-04-04T19:28:19.837Z,3
2016-04-04T19:31:32.332Z,3
2016-04-04T19:34:46.341Z,3
2016-04-04T19:38:00.302Z,3
2016-04-04T19:41:20.388Z,3
2016-04-04T19:44:23.537Z,3
2016-04-04T19:47:37.578Z,3
2016-04-04T19:50:50.946Z,3
2016-04-04T19:54:04.813Z,3
2016-04-04T19:57:21.618Z,3
2016-04-04T20:00:24.705Z,3
2016-04-04T20:03:36.294Z,3
2016-04-04T20:06:49.771Z,3
2016-04-04T20:10:03.747Z,3
2016-04-04T20:13:49.728Z,3
2016-04-04T20:16:59.392Z,3
2016-04-04T20:20:17.993Z,3
2016-04-04T20:23:21.236Z,3
2016-04-04T20:26:31.885Z,2
2016-04-04T20:29:42.942Z,3
2016-04-04T20:32:53.918Z,3
2016-04-04T20:36:04.865Z,3
2016-04-04T20:39:21.747Z,3
2016-04-04T20:42:24.865Z,3
2016-04-04T20:45:38.703Z,3
2016-04-04T20:48:52.430Z,3
2016-04-04T20:52:03.173Z,3
2016-04-04T20:55:20.478Z,3
2016-04-04T20:58:23.502Z,3
2016-04-04T21:01:36.716Z,3
2016-04-04T21:04:50.474Z,3
2016-04-04T21:08:04.216Z,3
2016-04-04T21:11:24.354Z,3
2016-04-04T21:14:27.487Z,3
2016-04-04T21:17:41.152Z,3
2016-04-04T21:20:55.022Z,3
2016-04-04T21:24:08.686Z,3
2016-04-04T21:27:22.882Z,3
2016-04-04T21:30:35.358Z,3
2016-04-04T21:33:45.557Z,3
2016-04-04T21:36:59.862Z,3
2016-04-04T21:40:10.995Z,3
2016-04-04T21:43:26.581Z,3
2016-04-04T21:46:38.089Z,3
2016-04-04T21:49:51.615Z,3
2016-04-04T21:53:05.561Z,3
2016-04-04T21:56:25.788Z,3
2016-04-04T21:59:29.046Z,3
2016-04-04T22:02:41.351Z,3
2016-04-04T22:05:53.174Z,3
2016-04-04T22:09:05.151Z,3
2016-04-04T22:12:22.221Z,3
2016-04-04T22:15:25.526Z,3
2016-04-04T22:18:39.612Z,3
2016-04-04T22:21:53.436Z,3
2016-04-04T22:25:04.053Z,3
2016-04-04T22:28:24.108Z,3
2016-04-04T22:31:27.335Z,3
2016-04-04T22:34:41.077Z,3
2016-04-04T22:37:54.838Z,3
2016-04-04T22:41:08.799Z,3
2016-04-04T22:44:22.746Z,3
2016-04-04T22:47:36.518Z,2
2016-04-04T22:50:50.201Z,7
2016-04-04T22:54:03.881Z,7
2016-04-04T22:57:22.717Z,7
2016-04-04T23:00:25.616Z,7
2016-04-04T23:03:36.421Z,7
2016-04-04T23:06:47.618Z,7
2016-04-04T23:10:00.877Z,7
2016-04-04T23:13:12.417Z,7
2016-04-04T23:16:25.471Z,7
2016-04-04T23:19:38.495Z,7
2016-04-04T23:22:49.287Z,7
2016-04-04T23:26:02.342Z,7
2016-04-04T23:29:21.366Z,7
2016-04-04T23:32:23.671Z,7
2016-04-04T23:35:34.022Z,7
2016-04-04T23:38:47.018Z,7
2016-04-04T23:41:58.229Z,7
2016-04-04T23:45:11.315Z,7
2016-04-04T23:48:24.057Z,7
2016-04-04T23:51:37.206Z,7
2016-04-04T23:54:47.561Z,7
2016-04-04T23:58:00.788Z,7
